N731GV LLHZ-LLHZ

Flight info

Callsign N731GV
Flight time 0h 5m
Altitude 11000
Route CVFR/IFR ROUTES
Aircraft B36T/L-V/N

Departure

Time 2026-04-25 17:16
Airport Herzliya Airport (LLHZ)

Arrival

Time 2026-04-25 17:22
Airport Herzliya Airport (LLHZ)
Time Latitude Longitude Altitude Speed Heading
2026-04-25 17:05 32.17897 34.83726 116 ft 0 kts 290°
2026-04-25 17:07 32.17897 34.83727 116 ft 0 kts 290°
2026-04-25 17:12 32.17897 34.83726 116 ft 1 kts 291°
2026-04-25 17:12 32.17900 34.83716 115 ft 0 kts 304°
2026-04-25 17:12 32.17910 34.83742 116 ft 15 kts 107°
2026-04-25 17:13 32.17896 34.83791 119 ft 2 kts 108°
2026-04-25 17:13 32.17894 34.83798 119 ft 1 kts 111°
2026-04-25 17:13 32.17888 34.83817 120 ft 0 kts 110°
2026-04-25 17:13 32.17881 34.83844 120 ft 0 kts 96°
2026-04-25 17:15 32.17881 34.83847 121 ft 5 kts 92°
2026-04-25 17:15 32.17915 34.83846 122 ft 4 kts 290°
2026-04-25 17:16 32.17915 34.83845 122 ft 0 kts 290°
2026-04-25 17:16 32.17993 34.83583 108 ft 86 kts 289°
2026-04-25 17:16 32.18236 34.82808 628 ft 107 kts 321°
2026-04-25 17:16 32.18973 34.82899 812 ft 119 kts 34°
2026-04-25 17:17 32.19179 34.83733 817 ft 118 kts 107°
2026-04-25 17:17 32.18946 34.84672 739 ft 118 kts 83°
2026-04-25 17:17 32.18646 34.85378 641 ft 125 kts 183°
2026-04-25 17:17 32.17901 34.85137 534 ft 106 kts 210°
2026-04-25 17:18 32.17744 34.84441 307 ft 90 kts 291°
2026-04-25 17:18 32.17932 34.83791 126 ft 83 kts 291°
2026-04-25 17:18 32.18126 34.83137 170 ft 105 kts 292°
2026-04-25 17:18 32.18689 34.82806 464 ft 110 kts 14°
2026-04-25 17:19 32.19297 34.83162 756 ft 101 kts 70°
2026-04-25 17:19 32.19168 34.84084 838 ft 131 kts 115°
2026-04-25 17:19 32.18750 34.85044 797 ft 131 kts 117°
2026-04-25 17:19 32.18061 34.85293 574 ft 109 kts 202°
2026-04-25 17:20 32.17693 34.84983 451 ft 91 kts 252°
2026-04-25 17:20 32.17865 34.84008 476 ft 103 kts 289°
2026-04-25 17:20 32.18096 34.83050 874 ft 143 kts 292°
2026-04-25 17:20 32.18856 34.82873 798 ft 128 kts 28°
2026-04-25 17:21 32.19246 34.83720 794 ft 142 kts 101°
2026-04-25 17:21 32.18837 34.84888 872 ft 158 kts 122°
2026-04-25 17:21 32.18159 34.85018 739 ft 104 kts 238°
2026-04-25 17:21 32.17765 34.84387 547 ft 87 kts 242°
2026-04-25 17:22 32.17949 34.83728 118 ft 87 kts 291°
2026-04-25 17:22 32.18047 34.83398 102 ft 37 kts 291°
2026-04-25 17:22 32.18020 34.83375 103 ft 13 kts 106°
2026-04-25 17:22 32.17984 34.83491 106 ft 25 kts 108°
2026-04-25 17:23 32.17932 34.83668 112 ft 12 kts 109°
2026-04-25 17:23 32.17893 34.83797 119 ft 30 kts 110°
2026-04-25 17:23 32.17892 34.83863 121 ft 15 kts 22°
2026-04-25 17:23 32.17916 34.83842 122 ft 0 kts 288°
2026-04-25 17:24 32.18036 34.83440 103 ft 106 kts 289°
2026-04-25 17:24 32.18465 34.82666 662 ft 118 kts 355°
2026-04-25 17:24 32.19169 34.83114 790 ft 113 kts 72°
2026-04-25 17:24 32.19003 34.83991 746 ft 116 kts 117°
2026-04-25 17:25 32.18572 34.84845 841 ft 109 kts 182°
2026-04-25 17:25 32.18019 34.84387 527 ft 92 kts 226°
2026-04-25 17:25 32.17961 34.83692 124 ft 90 kts 290°
2026-04-25 17:25 32.18172 34.82974 145 ft 116 kts 288°
2026-04-25 17:26 32.18843 34.82821 725 ft 131 kts 27°
2026-04-25 17:26 32.19353 34.83648 890 ft 131 kts 105°
2026-04-25 17:26 32.18846 34.84582 769 ft 126 kts 152°
2026-04-25 17:26 32.18180 34.84419 513 ft 98 kts 229°
2026-04-25 17:27 32.17948 34.83763 128 ft 86 kts 284°
2026-04-25 17:27 32.18127 34.83124 96 ft 105 kts 289°
2026-04-25 17:27 32.18677 34.82827 635 ft 121 kts 26°
2026-04-25 17:27 32.19180 34.83200 884 ft 143 kts 53°
2026-04-25 17:28 32.19074 34.84619 766 ft 134 kts 116°
2026-04-25 17:28 32.18457 34.85199 596 ft 113 kts 216°
2026-04-25 17:28 32.18097 34.84512 384 ft 90 kts 251°
2026-04-25 17:28 32.17941 34.83831 157 ft 84 kts 277°
2026-04-25 17:29 32.18118 34.83161 99 ft 110 kts 290°
2026-04-25 17:29 32.18715 34.82831 517 ft 129 kts 27°
2026-04-25 17:29 32.19365 34.83555 938 ft 142 kts 83°
2026-04-25 17:29 32.18920 34.84670 888 ft 160 kts 142°
2026-04-25 17:30 32.18056 34.84442 1196 ft 150 kts 243°
2026-04-25 17:30 32.17885 34.83196 1240 ft 154 kts 286°
2026-04-25 17:30 32.18786 34.82813 1236 ft 168 kts 22°
2026-04-25 17:30 32.19230 34.83693 1721 ft 130 kts 145°
2026-04-25 17:31 32.18951 34.83887 203 ft 0 kts 161°
2026-04-25 17:31 32.18030 34.83532 1258 ft 151 kts 266°
2026-04-25 17:32 32.18732 34.82894 1291 ft 183 kts 32°
2026-04-25 17:32 32.19568 34.83519 1220 ft 119 kts 320°
2026-04-25 17:32 32.19185 34.83017 315 ft 111 kts 187°
2026-04-25 17:32 32.18541 34.82818 237 ft 86 kts 199°
2026-04-25 17:33 32.18119 34.83158 113 ft 96 kts 109°
2026-04-25 17:33 32.17908 34.83870 140 ft 99 kts 110°
2026-04-25 17:33 32.17734 34.84772 580 ft 124 kts 95°
2026-04-25 17:33 32.18276 34.85208 718 ft 121 kts 352°
2026-04-25 17:34 32.18899 34.84520 860 ft 146 kts 295°
2026-04-25 17:34 32.19441 34.84459 705 ft 142 kts 129°
2026-04-25 17:34 32.18633 34.85208 778 ft 146 kts 155°
2026-04-25 17:34 32.17864 34.85165 578 ft 102 kts 218°
2026-04-25 17:35 32.17751 34.84403 328 ft 95 kts 288°
2026-04-25 17:35 32.17946 34.83747 118 ft 75 kts 289°
2026-04-25 17:35 32.18117 34.83163 99 ft 99 kts 290°
2026-04-25 17:35 32.18660 34.82802 442 ft 128 kts 22°
2026-04-25 17:36 32.19463 34.83362 864 ft 129 kts 66°
2026-04-25 17:36 32.19291 34.84484 860 ft 156 kts 120°
2026-04-25 17:36 32.18698 34.85278 637 ft 118 kts 158°
2026-04-25 17:36 32.17913 34.85180 623 ft 117 kts 208°
2026-04-25 17:37 32.17741 34.84421 322 ft 97 kts 289°
2026-04-25 17:37 32.17942 34.83759 127 ft 80 kts 289°
2026-04-25 17:37 32.18100 34.83219 96 ft 45 kts 289°